createdAt,value
2023-02-04T00:04:38.861Z,2000
2023-02-04T00:34:40.199Z,2703
2023-02-04T01:04:41.691Z,13108
2023-02-04T01:34:43.483Z,27085
2023-02-04T02:04:44.222Z,28285
2023-02-04T02:34:45.874Z,40000
2023-02-04T03:04:46.415Z,40000
2023-02-04T03:34:47.137Z,40000
2023-02-04T04:04:48.918Z,40000
2023-02-04T04:34:50.314Z,40000
2023-02-04T05:04:50.780Z,32052
2023-02-04T05:34:52.804Z,40000
2023-02-04T06:04:53.863Z,2498
2023-02-04T06:34:54.703Z,4064
2023-02-04T07:04:54.826Z,30542
2023-02-04T07:34:55.297Z,32213
2023-02-04T08:04:56.287Z,40000
2023-02-04T08:34:57.143Z,14657
2023-02-04T09:04:58.541Z,8019
2023-02-04T09:34:59.443Z,6884
2023-02-04T10:04:59.703Z,2029
2023-02-04T10:34:59.881Z,1279
2023-02-04T11:05:01.189Z,1127
2023-02-04T11:35:02.282Z,2001
2023-02-04T12:05:03.821Z,479
2023-02-04T12:35:05.388Z,624
2023-02-04T13:05:06.921Z,888
2023-02-04T13:46:52.859Z,557
2023-02-04T14:16:55.041Z,1618
2023-02-04T14:46:57.170Z,7534
2023-02-04T15:16:59.050Z,1714
2023-02-04T15:47:01.104Z,12910
2023-02-04T16:17:01.784Z,37364
2023-02-04T16:47:03.652Z,40000
2023-02-04T17:17:04.175Z,40000
2023-02-04T17:47:05.321Z,32065
2023-02-04T18:17:06.217Z,40000
2023-02-04T18:47:11.389Z,40000
2023-02-04T19:17:12.787Z,40000
2023-02-04T19:47:14.488Z,40000
2023-02-04T20:17:15.194Z,40000
2023-02-04T20:47:16.059Z,40000
2023-02-04T21:17:16.312Z,40000
2023-02-04T21:47:16.586Z,40000
2023-02-04T22:17:18.089Z,40000
2023-02-04T22:47:19.047Z,40000
2023-02-04T23:17:19.359Z,40000
2023-02-04T23:47:20.986Z,40000
